sensor_id;sensor_type;location;lat;lon;timestamp;pressure;altitude;pressure_sealevel;temperature;humidity
9695;BME280;4690;52.422;13.486;2023-06-05T00:05:13;101857.31;;;16.61;46.08
9695;BME280;4690;52.422;13.486;2023-06-05T00:07:39;101859.03;;;16.62;46.36
9695;BME280;4690;52.422;13.486;2023-06-05T00:10:07;101862.75;;;16.56;46.97
9695;BME280;4690;52.422;13.486;2023-06-05T00:12:34;101866.56;;;16.55;46.85
9695;BME280;4690;52.422;13.486;2023-06-05T00:15:00;101862.63;;;16.51;46.69
9695;BME280;4690;52.422;13.486;2023-06-05T00:17:28;101862.63;;;16.51;46.55
9695;BME280;4690;52.422;13.486;2023-06-05T00:19:53;101863.56;;;16.45;47.12
9695;BME280;4690;52.422;13.486;2023-06-05T00:22:19;101857.44;;;16.43;47.23
9695;BME280;4690;52.422;13.486;2023-06-05T00:24:46;101859.59;;;16.41;47.38
9695;BME280;4690;52.422;13.486;2023-06-05T00:27:11;101860.06;;;16.38;47.77
9695;BME280;4690;52.422;13.486;2023-06-05T00:29:37;101859.94;;;16.32;47.52
9695;BME280;4690;52.422;13.486;2023-06-05T00:32:03;101870.63;;;16.29;47.48
9695;BME280;4690;52.422;13.486;2023-06-05T00:34:29;101860.06;;;16.26;47.56
9695;BME280;4690;52.422;13.486;2023-06-05T00:36:54;101868.00;;;16.22;47.83
9695;BME280;4690;52.422;13.486;2023-06-05T00:39:20;101868.69;;;16.18;47.76
9695;BME280;4690;52.422;13.486;2023-06-05T00:41:46;101870.00;;;16.15;48.03
9695;BME280;4690;52.422;13.486;2023-06-05T00:44:12;101855.81;;;16.11;48.07
9695;BME280;4690;52.422;13.486;2023-06-05T00:46:39;101862.66;;;16.09;48.47
9695;BME280;4690;52.422;13.486;2023-06-05T00:49:07;101865.91;;;16.06;48.41
9695;BME280;4690;52.422;13.486;2023-06-05T00:51:33;101866.38;;;16.03;48.22
9695;BME280;4690;52.422;13.486;2023-06-05T00:54:00;101868.53;;;16.01;48.09
9695;BME280;4690;52.422;13.486;2023-06-05T00:56:26;101873.44;;;15.99;48.10
9695;BME280;4690;52.422;13.486;2023-06-05T00:58:54;101858.78;;;15.98;48.10
9695;BME280;4690;52.422;13.486;2023-06-05T01:01:20;101857.56;;;15.94;48.11
9695;BME280;4690;52.422;13.486;2023-06-05T01:03:47;101865.25;;;15.92;47.75
9695;BME280;4690;52.422;13.486;2023-06-05T01:06:13;101861.03;;;15.89;47.69
9695;BME280;4690;52.422;13.486;2023-06-05T01:08:45;101854.66;;;15.89;47.88
9695;BME280;4690;52.422;13.486;2023-06-05T01:14:24;101852.22;;;15.81;47.99
9695;BME280;4690;52.422;13.486;2023-06-05T01:16:54;101856.09;;;15.80;47.94
9695;BME280;4690;52.422;13.486;2023-06-05T01:19:24;101854.22;;;15.74;47.97
9695;BME280;4690;52.422;13.486;2023-06-05T01:22:03;101851.94;;;15.71;48.29
9695;BME280;4690;52.422;13.486;2023-06-05T01:24:29;101851.94;;;15.71;48.02
9695;BME280;4690;52.422;13.486;2023-06-05T01:32:15;101849.03;;;15.65;47.90
9695;BME280;4690;52.422;13.486;2023-06-05T01:34:43;101857.53;;;15.64;48.14
9695;BME280;4690;52.422;13.486;2023-06-05T01:37:12;101860.75;;;15.61;47.98
9695;BME280;4690;52.422;13.486;2023-06-05T01:39:42;101854.00;;;15.57;48.32
9695;BME280;4690;52.422;13.486;2023-06-05T01:42:09;101854.47;;;15.54;48.41
9695;BME280;4690;52.422;13.486;2023-06-05T01:44:36;101859.41;;;15.52;48.26
9695;BME280;4690;52.422;13.486;2023-06-05T01:47:02;101852.66;;;15.47;48.19
9695;BME280;4690;52.422;13.486;2023-06-05T01:49:28;101854.78;;;15.45;48.47
9695;BME280;4690;52.422;13.486;2023-06-05T01:51:53;101855.25;;;15.42;48.67
9695;BME280;4690;52.422;13.486;2023-06-05T01:54:20;101851.03;;;15.40;48.78
9695;BME280;4690;52.422;13.486;2023-06-05T01:56:50;101851.50;;;15.37;48.85
9695;BME280;4690;52.422;13.486;2023-06-05T01:59:15;101852.38;;;15.37;48.58
9695;BME280;4690;52.422;13.486;2023-06-05T02:01:41;101851.97;;;15.34;48.91
9695;BME280;4690;52.422;13.486;2023-06-05T02:04:10;101856.03;;;15.31;49.12
9695;BME280;4690;52.422;13.486;2023-06-05T02:06:36;101850.97;;;15.28;49.30
9695;BME280;4690;52.422;13.486;2023-06-05T02:09:08;101849.31;;;15.27;49.36
9695;BME280;4690;52.422;13.486;2023-06-05T02:11:41;101849.31;;;15.27;49.89
9695;BME280;4690;52.422;13.486;2023-06-05T02:14:11;101846.38;;;15.22;49.73
9695;BME280;4690;52.422;13.486;2023-06-05T02:16:40;101833.88;;;15.19;49.79
9695;BME280;4690;52.422;13.486;2023-06-05T02:19:06;101835.19;;;15.17;50.02
9695;BME280;4690;52.422;13.486;2023-06-05T02:21:32;101833.72;;;15.14;50.12
9695;BME280;4690;52.422;13.486;2023-06-05T02:24:02;101831.50;;;15.05;50.35
9695;BME280;4690;52.422;13.486;2023-06-05T02:26:28;101828.13;;;15.02;50.88
9695;BME280;4690;52.422;13.486;2023-06-05T02:28:55;101823.91;;;15.00;50.90
9695;BME280;4690;52.422;13.486;2023-06-05T02:31:23;101827.75;;;14.99;50.87
9695;BME280;4690;52.422;13.486;2023-06-05T02:33:53;101821.59;;;14.97;51.02
9695;BME280;4690;52.422;13.486;2023-06-05T02:36:22;101820.16;;;14.94;50.93
9695;BME280;4690;52.422;13.486;2023-06-05T02:38:49;101823.38;;;14.91;51.32
9695;BME280;4690;52.422;13.486;2023-06-05T02:41:16;101823.22;;;14.86;51.09
9695;BME280;4690;52.422;13.486;2023-06-05T02:43:43;101822.84;;;14.83;51.12
9695;BME280;4690;52.422;13.486;2023-06-05T02:46:10;101834.13;;;14.81;51.07
9695;BME280;4690;52.422;13.486;2023-06-05T02:48:37;101822.44;;;14.79;51.10
9695;BME280;4690;52.422;13.486;2023-06-05T02:51:03;101823.50;;;14.78;51.68
9695;BME280;4690;52.422;13.486;2023-06-05T02:53:29;101822.91;;;14.76;51.63
9695;BME280;4690;52.422;13.486;2023-06-05T02:55:55;101822.50;;;14.72;52.14
9695;BME280;4690;52.422;13.486;2023-06-05T02:58:21;101820.81;;;14.71;51.98
9695;BME280;4690;52.422;13.486;2023-06-05T03:00:47;101814.75;;;14.63;52.03
9695;BME280;4690;52.422;13.486;2023-06-05T03:03:16;101822.41;;;14.61;52.38
9695;BME280;4690;52.422;13.486;2023-06-05T03:05:42;101823.13;;;14.56;52.93
9695;BME280;4690;52.422;13.486;2023-06-05T03:08:10;101816.72;;;14.55;52.91
9695;BME280;4690;52.422;13.486;2023-06-05T03:10:36;101811.22;;;14.55;53.23
9695;BME280;4690;52.422;13.486;2023-06-05T03:13:02;101812.53;;;14.53;53.14
9695;BME280;4690;52.422;13.486;2023-06-05T03:15:28;101817.59;;;14.49;53.13
9695;BME280;4690;52.422;13.486;2023-06-05T03:17:53;101814.69;;;14.44;53.47
9695;BME280;4690;52.422;13.486;2023-06-05T03:20:19;101817.44;;;14.44;53.51
9695;BME280;4690;52.422;13.486;2023-06-05T03:22:45;101811.91;;;14.44;53.74
9695;BME280;4690;52.422;13.486;2023-06-05T03:25:11;101811.91;;;14.44;53.76
9695;BME280;4690;52.422;13.486;2023-06-05T03:27:37;101809.63;;;14.41;54.04
9695;BME280;4690;52.422;13.486;2023-06-05T03:30:04;101816.44;;;14.39;54.17
9695;BME280;4690;52.422;13.486;2023-06-05T03:32:31;101812.84;;;14.38;54.24
9695;BME280;4690;52.422;13.486;2023-06-05T03:34:56;101809.25;;;14.38;54.54
9695;BME280;4690;52.422;13.486;2023-06-05T03:37:22;101813.06;;;14.37;54.57
9695;BME280;4690;52.422;13.486;2023-06-05T03:39:48;101816.66;;;14.37;54.88
9695;BME280;4690;52.422;13.486;2023-06-05T03:42:14;101813.53;;;14.33;54.97
9695;BME280;4690;52.422;13.486;2023-06-05T03:44:39;101818.19;;;14.33;55.42
9695;BME280;4690;52.422;13.486;2023-06-05T03:47:06;101813.13;;;14.30;55.36
9695;BME280;4690;52.422;13.486;2023-06-05T03:49:33;101820.94;;;14.33;55.48
9695;BME280;4690;52.422;13.486;2023-06-05T03:52:01;101815.66;;;14.31;55.75
9695;BME280;4690;52.422;13.486;2023-06-05T03:54:28;101823.47;;;14.34;56.14
9695;BME280;4690;52.422;13.486;2023-06-05T03:56:57;101817.31;;;14.39;56.01
9695;BME280;4690;52.422;13.486;2023-06-05T03:59:26;101821.28;;;14.43;56.40
9695;BME280;4690;52.422;13.486;2023-06-05T04:01:55;101825.97;;;14.43;56.29
9695;BME280;4690;52.422;13.486;2023-06-05T04:04:21;101825.50;;;14.46;56.15
9695;BME280;4690;52.422;13.486;2023-06-05T04:06:48;101821.19;;;14.50;56.26
9695;BME280;4690;52.422;13.486;2023-06-05T04:09:14;101826.94;;;14.55;56.56
9695;BME280;4690;52.422;13.486;2023-06-05T04:11:44;101822.88;;;14.57;56.83
9695;BME280;4690;52.422;13.486;2023-06-05T04:14:10;101837.91;;;14.62;56.98
9695;BME280;4690;52.422;13.486;2023-06-05T04:16:37;101836.63;;;14.64;57.00
9695;BME280;4690;52.422;13.486;2023-06-05T04:19:11;101835.91;;;14.69;56.54
9695;BME280;4690;52.422;13.486;2023-06-05T04:21:38;101837.75;;;14.75;56.93
9695;BME280;4690;52.422;13.486;2023-06-05T04:24:05;101841.53;;;14.80;56.70
9695;BME280;4690;52.422;13.486;2023-06-05T04:26:38;101834.88;;;14.88;56.62
9695;BME280;4690;52.422;13.486;2023-06-05T04:29:05;101836.13;;;14.92;56.45
9695;BME280;4690;52.422;13.486;2023-06-05T04:31:46;101832.19;;;15.00;56.46
9695;BME280;4690;52.422;13.486;2023-06-05T04:34:13;101832.59;;;15.04;56.50
9695;BME280;4690;52.422;13.486;2023-06-05T04:36:40;101831.41;;;15.11;56.46
9695;BME280;4690;52.422;13.486;2023-06-05T04:39:06;101831.13;;;15.19;56.40
9695;BME280;4690;52.422;13.486;2023-06-05T04:41:43;101832.41;;;15.35;55.98
9695;BME280;4690;52.422;13.486;2023-06-05T04:44:14;101836.69;;;15.50;55.81
9695;BME280;4690;52.422;13.486;2023-06-05T04:46:43;101830.13;;;15.62;55.24
9695;BME280;4690;52.422;13.486;2023-06-05T04:49:14;101833.81;;;15.75;54.30
9695;BME280;4690;52.422;13.486;2023-06-05T04:51:40;101832.53;;;15.89;52.41
9695;BME280;4690;52.422;13.486;2023-06-05T04:54:10;101833.66;;;16.00;51.66
9695;BME280;4690;52.422;13.486;2023-06-05T04:56:36;101826.22;;;16.12;52.21
9695;BME280;4690;52.422;13.486;2023-06-05T04:59:04;101822.16;;;16.26;52.58
9695;BME280;4690;52.422;13.486;2023-06-05T05:01:31;101821.69;;;16.41;50.36
9695;BME280;4690;52.422;13.486;2023-06-05T05:03:56;101823.88;;;16.51;49.94
9695;BME280;4690;52.422;13.486;2023-06-05T05:06:24;101824.97;;;16.62;49.66
9695;BME280;4690;52.422;13.486;2023-06-05T05:08:50;101826.28;;;16.71;49.56
9695;BME280;4690;52.422;13.486;2023-06-05T05:11:17;101822.94;;;16.80;49.40
9695;BME280;4690;52.422;13.486;2023-06-05T05:13:43;101831.25;;;16.92;50.48
9695;BME280;4690;52.422;13.486;2023-06-05T05:16:10;101826.53;;;17.05;49.98
9695;BME280;4690;52.422;13.486;2023-06-05T05:18:39;101822.78;;;17.11;50.38
9695;BME280;4690;52.422;13.486;2023-06-05T05:21:06;101817.69;;;17.19;48.60
9695;BME280;4690;52.422;13.486;2023-06-05T05:23:33;101822.84;;;17.28;46.94
9695;BME280;4690;52.422;13.486;2023-06-05T05:26:00;101827.06;;;17.30;47.21
9695;BME280;4690;52.422;13.486;2023-06-05T05:28:27;101823.06;;;17.38;47.16
9695;BME280;4690;52.422;13.486;2023-06-05T05:30:54;101827.84;;;17.54;48.98
9695;BME280;4690;52.422;13.486;2023-06-05T05:33:22;101825.94;;;17.72;47.86
9695;BME280;4690;52.422;13.486;2023-06-05T05:35:48;101825.09;;;17.83;47.58
9695;BME280;4690;52.422;13.486;2023-06-05T05:38:15;101826.13;;;17.94;48.66
9695;BME280;4690;52.422;13.486;2023-06-05T05:40:41;101820.00;;;18.08;47.86
9695;BME280;4690;52.422;13.486;2023-06-05T05:43:06;101828.91;;;18.27;47.75
9695;BME280;4690;52.422;13.486;2023-06-05T05:45:32;101828.88;;;18.44;45.63
9695;BME280;4690;52.422;13.486;2023-06-05T05:47:58;101834.19;;;18.63;46.28
9695;BME280;4690;52.422;13.486;2023-06-05T05:50:23;101842.00;;;18.83;43.70
9695;BME280;4690;52.422;13.486;2023-06-05T05:52:49;101840.88;;;19.00;42.84
9695;BME280;4690;52.422;13.486;2023-06-05T05:55:17;101839.75;;;19.18;42.49
9695;BME280;4690;52.422;13.486;2023-06-05T05:57:43;101840.75;;;19.34;41.51
9695;BME280;4690;52.422;13.486;2023-06-05T06:00:09;101847.09;;;19.52;41.38
9695;BME280;4690;52.422;13.486;2023-06-05T06:02:39;101849.56;;;19.70;42.61
9695;BME280;4690;52.422;13.486;2023-06-05T06:05:05;101846.44;;;19.88;42.44
9695;BME280;4690;52.422;13.486;2023-06-05T06:07:31;101854.66;;;20.05;40.43
9695;BME280;4690;52.422;13.486;2023-06-05T06:09:57;101858.41;;;20.21;40.61
9695;BME280;4690;52.422;13.486;2023-06-05T06:12:24;101851.84;;;20.32;39.44
9695;BME280;4690;52.422;13.486;2023-06-05T06:14:50;101857.53;;;20.48;40.24
9695;BME280;4690;52.422;13.486;2023-06-05T06:17:16;101859.34;;;20.59;40.92
9695;BME280;4690;52.422;13.486;2023-06-05T06:19:43;101854.69;;;20.70;39.53
9695;BME280;4690;52.422;13.486;2023-06-05T06:22:09;101859.47;;;20.79;41.22
9695;BME280;4690;52.422;13.486;2023-06-05T06:24:42;101856.22;;;20.93;41.04
9695;BME280;4690;52.422;13.486;2023-06-05T06:27:11;101849.59;;;21.04;39.87
9695;BME280;4690;52.422;13.486;2023-06-05T06:29:48;101863.91;;;21.18;38.80
9695;BME280;4690;52.422;13.486;2023-06-05T06:32:16;101861.16;;;21.33;38.25
9695;BME280;4690;52.422;13.486;2023-06-05T06:34:42;101864.63;;;21.56;41.43
9695;BME280;4690;52.422;13.486;2023-06-05T06:37:12;101857.16;;;21.71;38.75
9695;BME280;4690;52.422;13.486;2023-06-05T06:39:39;101860.53;;;21.84;37.69
9695;BME280;4690;52.422;13.486;2023-06-05T06:42:05;101861.41;;;22.00;38.07
9695;BME280;4690;52.422;13.486;2023-06-05T06:44:31;101869.28;;;22.18;39.23
9695;BME280;4690;52.422;13.486;2023-06-05T06:46:56;101864.28;;;22.30;38.05
9695;BME280;4690;52.422;13.486;2023-06-05T06:49:22;101864.25;;;22.41;36.34
9695;BME280;4690;52.422;13.486;2023-06-05T06:51:48;101863.16;;;22.52;36.08
9695;BME280;4690;52.422;13.486;2023-06-05T06:54:13;101856.72;;;22.62;35.25
9695;BME280;4690;52.422;13.486;2023-06-05T06:56:39;101853.91;;;22.72;36.45
9695;BME280;4690;52.422;13.486;2023-06-05T06:59:15;101858.34;;;22.83;35.25
9695;BME280;4690;52.422;13.486;2023-06-05T07:01:45;101858.38;;;23.03;33.79
9695;BME280;4690;52.422;13.486;2023-06-05T07:04:17;101861.66;;;23.21;32.00
9695;BME280;4690;52.422;13.486;2023-06-05T07:06:46;101855.47;;;23.29;32.55
9695;BME280;4690;52.422;13.486;2023-06-05T07:09:13;101854.84;;;23.42;32.10
9695;BME280;4690;52.422;13.486;2023-06-05T07:11:39;101855.13;;;23.46;32.27
9695;BME280;4690;52.422;13.486;2023-06-05T07:14:06;101858.72;;;23.57;31.27
9695;BME280;4690;52.422;13.486;2023-06-05T07:16:33;101858.66;;;23.62;30.65
9695;BME280;4690;52.422;13.486;2023-06-05T07:18:59;101854.13;;;23.76;32.21
9695;BME280;4690;52.422;13.486;2023-06-05T07:21:24;101864.69;;;23.94;30.33
9695;BME280;4690;52.422;13.486;2023-06-05T07:23:51;101860.13;;;24.04;29.64
9695;BME280;4690;52.422;13.486;2023-06-05T07:26:20;101858.34;;;24.18;30.13
9695;BME280;4690;52.422;13.486;2023-06-05T07:28:47;101849.56;;;24.30;27.97
9695;BME280;4690;52.422;13.486;2023-06-05T07:31:13;101855.97;;;24.35;28.09
9695;BME280;4690;52.422;13.486;2023-06-05T07:33:41;101850.28;;;24.51;28.66
9695;BME280;4690;52.422;13.486;2023-06-05T07:36:08;101854.94;;;24.60;27.46
9695;BME280;4690;52.422;13.486;2023-06-05T07:38:36;101858.19;;;24.73;27.57
9695;BME280;4690;52.422;13.486;2023-06-05T07:41:02;101857.47;;;24.86;30.00
9695;BME280;4690;52.422;13.486;2023-06-05T07:43:28;101856.19;;;25.02;29.79
9695;BME280;4690;52.422;13.486;2023-06-05T07:45:54;101852.72;;;25.11;27.64
9695;BME280;4690;52.422;13.486;2023-06-05T07:48:20;101860.25;;;25.20;27.87
9695;BME280;4690;52.422;13.486;2023-06-05T07:50:46;101856.00;;;25.23;27.70
9695;BME280;4690;52.422;13.486;2023-06-05T07:53:12;101850.78;;;25.35;30.18
9695;BME280;4690;52.422;13.486;2023-06-05T07:55:37;101854.59;;;25.44;28.35
9695;BME280;4690;52.422;13.486;2023-06-05T07:58:03;101853.88;;;25.58;26.92
9695;BME280;4690;52.422;13.486;2023-06-05T08:00:29;101856.22;;;25.69;26.21
9695;BME280;4690;52.422;13.486;2023-06-05T08:02:55;101851.44;;;25.70;26.52
9695;BME280;4690;52.422;13.486;2023-06-05T08:05:22;101859.50;;;25.77;25.89
9695;BME280;4690;52.422;13.486;2023-06-05T08:07:48;101841.16;;;25.84;25.56
9695;BME280;4690;52.422;13.486;2023-06-05T08:10:14;101847.84;;;25.88;26.70
9695;BME280;4690;52.422;13.486;2023-06-05T08:12:40;101844.66;;;25.95;25.89
9695;BME280;4690;52.422;13.486;2023-06-05T08:15:06;101839.72;;;26.06;25.54
9695;BME280;4690;52.422;13.486;2023-06-05T08:17:32;101843.56;;;26.10;24.56
9695;BME280;4690;52.422;13.486;2023-06-05T08:19:58;101844.25;;;26.21;24.19
9695;BME280;4690;52.422;13.486;2023-06-05T08:22:24;101844.63;;;26.33;24.99
9695;BME280;4690;52.422;13.486;2023-06-05T08:24:50;101837.38;;;26.46;24.47
9695;BME280;4690;52.422;13.486;2023-06-05T08:27:19;101846.28;;;26.53;24.64
9695;BME280;4690;52.422;13.486;2023-06-05T08:29:45;101843.47;;;26.53;24.00
9695;BME280;4690;52.422;13.486;2023-06-05T08:32:10;101834.91;;;26.58;23.41
9695;BME280;4690;52.422;13.486;2023-06-05T08:34:36;101835.38;;;26.65;24.09
9695;BME280;4690;52.422;13.486;2023-06-05T08:37:02;101817.78;;;26.73;22.30
9695;BME280;4690;52.422;13.486;2023-06-05T08:39:28;101825.16;;;26.83;23.43
9695;BME280;4690;52.422;13.486;2023-06-05T08:42:00;101828.31;;;26.95;26.41
9695;BME280;4690;52.422;13.486;2023-06-05T08:44:29;101821.34;;;27.07;25.11
9695;BME280;4690;52.422;13.486;2023-06-05T08:47:01;101819.75;;;27.14;23.94
9695;BME280;4690;52.422;13.486;2023-06-05T08:49:28;101816.22;;;27.09;22.01
9695;BME280;4690;52.422;13.486;2023-06-05T08:52:05;101814.28;;;27.23;22.21
9695;BME280;4690;52.422;13.486;2023-06-05T08:54:38;101812.69;;;27.31;21.94
9695;BME280;4690;52.422;13.486;2023-06-05T08:57:06;101818.75;;;27.38;24.22
9695;BME280;4690;52.422;13.486;2023-06-05T08:59:33;101819.38;;;27.48;24.16
9695;BME280;4690;52.422;13.486;2023-06-05T09:01:59;101817.03;;;27.64;23.19
9695;BME280;4690;52.422;13.486;2023-06-05T09:04:25;101817.09;;;27.73;22.03
9695;BME280;4690;52.422;13.486;2023-06-05T09:06:59;101819.53;;;27.80;22.14
9695;BME280;4690;52.422;13.486;2023-06-05T09:09:26;101820.34;;;27.80;21.75
9695;BME280;4690;52.422;13.486;2023-06-05T09:12:21;101824.34;;;27.79;21.39
9695;BME280;4690;52.422;13.486;2023-06-05T09:14:49;101813.25;;;27.69;22.57
9695;BME280;4690;52.422;13.486;2023-06-05T09:17:15;101810.53;;;27.78;22.55
9695;BME280;4690;52.422;13.486;2023-06-05T09:19:44;101811.44;;;27.87;22.80
9695;BME280;4690;52.422;13.486;2023-06-05T09:22:12;101801.94;;;27.97;21.87
9695;BME280;4690;52.422;13.486;2023-06-05T09:24:39;101817.56;;;28.03;21.25
9695;BME280;4690;52.422;13.486;2023-06-05T09:27:17;101815.75;;;28.07;21.00
9695;BME280;4690;52.422;13.486;2023-06-05T09:29:42;101822.09;;;28.12;21.73
9695;BME280;4690;52.422;13.486;2023-06-05T09:32:17;101808.16;;;28.07;22.06
9695;BME280;4690;52.422;13.486;2023-06-05T09:34:55;101812.38;;;28.19;22.11
9695;BME280;4690;52.422;13.486;2023-06-05T09:37:34;101806.34;;;28.11;20.86
9695;BME280;4690;52.422;13.486;2023-06-05T09:40:01;101824.59;;;28.14;21.17
9695;BME280;4690;52.422;13.486;2023-06-05T09:42:34;101806.28;;;28.03;20.39
9695;BME280;4690;52.422;13.486;2023-06-05T09:45:02;101806.47;;;28.06;21.43
9695;BME280;4690;52.422;13.486;2023-06-05T09:47:28;101801.72;;;27.93;21.56
9695;BME280;4690;52.422;13.486;2023-06-05T09:49:54;101801.28;;;28.00;21.38
9695;BME280;4690;52.422;13.486;2023-06-05T09:52:20;101800.25;;;28.18;22.27
9695;BME280;4690;52.422;13.486;2023-06-05T09:54:46;101795.06;;;28.11;21.74
9695;BME280;4690;52.422;13.486;2023-06-05T09:57:15;101796.31;;;28.19;21.31
9695;BME280;4690;52.422;13.486;2023-06-05T09:59:53;101789.69;;;28.24;21.30
9695;BME280;4690;52.422;13.486;2023-06-05T10:02:35;101785.31;;;28.40;22.24
9695;BME280;4690;52.422;13.486;2023-06-05T10:05:03;101781.75;;;28.48;21.59
9695;BME280;4690;52.422;13.486;2023-06-05T10:07:31;101789.59;;;28.60;21.50
9695;BME280;4690;52.422;13.486;2023-06-05T10:10:01;101786.47;;;28.39;20.25
9695;BME280;4690;52.422;13.486;2023-06-05T10:12:30;101775.84;;;28.36;20.04
9695;BME280;4690;52.422;13.486;2023-06-05T10:14:57;101778.31;;;28.37;20.96
9695;BME280;4690;52.422;13.486;2023-06-05T10:17:23;101765.16;;;28.47;20.84
9695;BME280;4690;52.422;13.486;2023-06-05T10:19:50;101769.16;;;28.54;21.00
9695;BME280;4690;52.422;13.486;2023-06-05T10:22:18;101768.38;;;28.63;21.04
9695;BME280;4690;52.422;13.486;2023-06-05T10:24:51;101768.38;;;28.63;20.40
9695;BME280;4690;52.422;13.486;2023-06-05T10:30:28;101766.53;;;28.58;20.46
9695;BME280;4690;52.422;13.486;2023-06-05T10:39:09;101746.56;;;28.86;20.44
9695;BME280;4690;52.422;13.486;2023-06-05T10:41:36;101748.22;;;28.87;19.73
9695;BME280;4690;52.422;13.486;2023-06-05T10:44:02;101748.53;;;28.85;20.69
9695;BME280;4690;52.422;13.486;2023-06-05T10:46:34;101743.59;;;28.99;20.09
9695;BME280;4690;52.422;13.486;2023-06-05T10:54:11;101741.72;;;29.26;19.66
9695;BME280;4690;52.422;13.486;2023-06-05T10:56:57;101743.50;;;29.13;19.46
9695;BME280;4690;52.422;13.486;2023-06-05T10:59:34;101740.63;;;28.96;18.59
9695;BME280;4690;52.422;13.486;2023-06-05T11:07:28;101729.75;;;29.20;19.75
9695;BME280;4690;52.422;13.486;2023-06-05T11:10:06;101728.94;;;29.37;19.78
9695;BME280;4690;52.422;13.486;2023-06-05T11:15:05;101740.38;;;29.32;19.50
9695;BME280;4690;52.422;13.486;2023-06-05T11:17:36;101735.56;;;29.41;19.49
9695;BME280;4690;52.422;13.486;2023-06-05T11:30:42;101716.81;;;29.54;17.95
9695;BME280;4690;52.422;13.486;2023-06-05T11:33:13;101728.44;;;29.44;18.14
9695;BME280;4690;52.422;13.486;2023-06-05T11:35:41;101719.28;;;29.47;18.85
9695;BME280;4690;52.422;13.486;2023-06-05T11:38:16;101715.66;;;29.55;17.90
9695;BME280;4690;52.422;13.486;2023-06-05T11:40:44;101707.19;;;29.64;18.35
9695;BME280;4690;52.422;13.486;2023-06-05T11:43:12;101699.88;;;29.71;18.99
9695;BME280;4690;52.422;13.486;2023-06-05T11:45:49;101693.72;;;29.78;18.26
9695;BME280;4690;52.422;13.486;2023-06-05T11:48:15;101698.03;;;29.84;18.68
9695;BME280;4690;52.422;13.486;2023-06-05T11:51:03;101694.84;;;29.94;18.17
9695;BME280;4690;52.422;13.486;2023-06-05T11:53:32;101695.84;;;29.90;18.79
9695;BME280;4690;52.422;13.486;2023-06-05T11:55:59;101686.22;;;29.91;17.86
9695;BME280;4690;52.422;13.486;2023-06-05T11:58:41;101695.69;;;29.60;18.26
9695;BME280;4690;52.422;13.486;2023-06-05T12:01:12;101685.75;;;29.54;18.33
9695;BME280;4690;52.422;13.486;2023-06-05T12:03:44;101684.06;;;29.62;17.78
9695;BME280;4690;52.422;13.486;2023-06-05T12:06:12;101695.06;;;29.37;18.16
9695;BME280;4690;52.422;13.486;2023-06-05T12:08:39;101690.38;;;29.41;19.04
9695;BME280;4690;52.422;13.486;2023-06-05T12:11:32;101691.56;;;29.49;17.76
9695;BME280;4690;52.422;13.486;2023-06-05T12:13:58;101693.38;;;29.62;18.44
9695;BME280;4690;52.422;13.486;2023-06-05T12:16:35;101679.94;;;29.68;18.71
9695;BME280;4690;52.422;13.486;2023-06-05T12:19:14;101676.94;;;29.64;18.33
9695;BME280;4690;52.422;13.486;2023-06-05T12:21:40;101678.25;;;29.76;19.99
9695;BME280;4690;52.422;13.486;2023-06-05T12:24:06;101669.97;;;29.79;18.90
9695;BME280;4690;52.422;13.486;2023-06-05T12:26:55;101665.44;;;29.78;19.24
9695;BME280;4690;52.422;13.486;2023-06-05T12:29:35;101666.59;;;29.94;20.29
9695;BME280;4690;52.422;13.486;2023-06-05T12:32:23;101661.56;;;30.09;18.44
9695;BME280;4690;52.422;13.486;2023-06-05T12:34:50;101654.41;;;30.11;17.75
9695;BME280;4690;52.422;13.486;2023-06-05T12:37:30;101665.72;;;30.11;16.93
9695;BME280;4690;52.422;13.486;2023-06-05T12:40:04;101672.56;;;30.02;17.63
9695;BME280;4690;52.422;13.486;2023-06-05T12:42:38;101663.63;;;29.82;17.20
9695;BME280;4690;52.422;13.486;2023-06-05T12:45:05;101661.47;;;29.70;18.22
9695;BME280;4690;52.422;13.486;2023-06-05T12:47:33;101644.88;;;29.69;17.41
9695;BME280;4690;52.422;13.486;2023-06-05T12:49:59;101647.31;;;29.62;17.92
9695;BME280;4690;52.422;13.486;2023-06-05T12:52:25;101643.22;;;29.68;19.05
9695;BME280;4690;52.422;13.486;2023-06-05T12:54:55;101646.03;;;29.68;18.17
9695;BME280;4690;52.422;13.486;2023-06-05T12:57:22;101639.06;;;29.65;17.51
9695;BME280;4690;52.422;13.486;2023-06-05T12:59:48;101636.88;;;29.62;19.32
9695;BME280;4690;52.422;13.486;2023-06-05T13:02:14;101639.88;;;29.57;17.97
9695;BME280;4690;52.422;13.486;2023-06-05T13:04:41;101641.53;;;29.67;19.08
9695;BME280;4690;52.422;13.486;2023-06-05T13:07:07;101636.06;;;29.79;18.54
9695;BME280;4690;52.422;13.486;2023-06-05T13:09:33;101638.50;;;29.89;18.31
9695;BME280;4690;52.422;13.486;2023-06-05T13:12:01;101638.66;;;29.84;17.01
9695;BME280;4690;52.422;13.486;2023-06-05T13:14:28;101623.72;;;29.84;17.71
9695;BME280;4690;52.422;13.486;2023-06-05T13:16:54;101631.72;;;29.73;18.34
9695;BME280;4690;52.422;13.486;2023-06-05T13:19:19;101634.88;;;29.71;18.58
9695;BME280;4690;52.422;13.486;2023-06-05T13:21:46;101625.88;;;29.78;17.82
9695;BME280;4690;52.422;13.486;2023-06-05T13:24:12;101626.25;;;29.68;17.59
9695;BME280;4690;52.422;13.486;2023-06-05T13:26:38;101608.63;;;29.80;18.63
9695;BME280;4690;52.422;13.486;2023-06-05T13:29:03;101608.06;;;29.95;20.53
9695;BME280;4690;52.422;13.486;2023-06-05T13:31:30;101606.38;;;30.03;18.89
9695;BME280;4690;52.422;13.486;2023-06-05T13:33:56;101605.69;;;30.06;17.92
9695;BME280;4690;52.422;13.486;2023-06-05T13:36:22;101604.19;;;30.08;18.09
9695;BME280;4690;52.422;13.486;2023-06-05T13:38:49;101600.91;;;29.98;19.00
9695;BME280;4690;52.422;13.486;2023-06-05T13:41:15;101602.91;;;29.97;18.25
9695;BME280;4690;52.422;13.486;2023-06-05T13:43:41;101598.75;;;29.94;17.94
9695;BME280;4690;52.422;13.486;2023-06-05T13:46:07;101596.25;;;29.93;18.49
9695;BME280;4690;52.422;13.486;2023-06-05T13:48:33;101588.75;;;29.97;19.16
9695;BME280;4690;52.422;13.486;2023-06-05T13:51:01;101587.59;;;29.98;18.47